createdAt,value
2022-11-17T01:00:37.336Z,26.92
2022-11-17T01:02:23.488Z,26.77
2022-11-17T01:04:09.661Z,26.62
2022-11-17T01:05:55.836Z,26.53
2022-11-17T01:07:42.676Z,26.41
2022-11-17T01:09:28.849Z,26.54
2022-11-17T01:11:15.081Z,26.59
2022-11-17T01:13:01.349Z,26.82
2022-11-17T01:14:47.622Z,26.86
2022-11-17T01:16:33.946Z,27.08
2022-11-17T01:18:20.169Z,27.15
2022-11-17T01:20:06.746Z,27.24
2022-11-17T01:21:53.252Z,27.53
2022-11-17T01:23:39.520Z,27.94
2022-11-17T01:25:25.764Z,28.29
2022-11-17T01:27:12.058Z,28.23
2022-11-17T01:28:58.420Z,28.25
2022-11-17T01:30:44.700Z,28.68
2022-11-17T01:32:31.003Z,29.04
2022-11-17T01:34:17.139Z,29.09
2022-11-17T01:36:03.583Z,30.05
2022-11-17T01:37:49.885Z,29.29
2022-11-17T01:39:36.098Z,29.42
2022-11-17T01:41:22.387Z,29.29
2022-11-17T01:43:09.319Z,28.96
2022-11-17T01:44:55.589Z,28.57
2022-11-17T01:46:41.859Z,28.70
2022-11-17T01:48:28.136Z,29.27
2022-11-17T01:50:14.445Z,29.74
2022-11-17T01:52:00.690Z,30.12
2022-11-17T01:53:46.875Z,29.30
2022-11-17T01:55:33.158Z,28.95
2022-11-17T01:57:19.623Z,29.37
2022-11-17T01:59:06.192Z,29.83
2022-11-17T02:00:52.436Z,29.54
2022-11-17T02:02:38.702Z,29.82
2022-11-17T02:04:25.319Z,29.23
2022-11-17T02:06:11.472Z,28.86
2022-11-17T02:07:58.052Z,28.96
2022-11-17T02:09:44.289Z,28.85
2022-11-17T02:11:30.767Z,29.65
2022-11-17T14:43:34.912Z,24.74
2022-11-17T14:45:21.774Z,24.81
2022-11-17T14:47:08.130Z,24.89
